sensor_id;sensor_type;location;lat;lon;timestamp;P1;durP1;ratioP1;P2;durP2;ratioP2
16975;SDS011;8604;48.148;-1.786;2022-12-18T00:00:05;31.57;;;16.33;;
16975;SDS011;8604;48.148;-1.786;2022-12-18T00:02:42;28.83;;;17.10;;
16975;SDS011;8604;48.148;-1.786;2022-12-18T00:05:11;30.83;;;16.30;;
16975;SDS011;8604;48.148;-1.786;2022-12-18T00:07:39;28.10;;;16.77;;
16975;SDS011;8604;48.148;-1.786;2022-12-18T00:10:09;31.37;;;17.83;;
16975;SDS011;8604;48.148;-1.786;2022-12-18T00:12:41;29.63;;;17.77;;
16975;SDS011;8604;48.148;-1.786;2022-12-18T00:15:09;30.83;;;17.60;;
16975;SDS011;8604;48.148;-1.786;2022-12-18T00:17:37;28.97;;;17.53;;
16975;SDS011;8604;48.148;-1.786;2022-12-18T00:20:06;29.40;;;17.87;;
16975;SDS011;8604;48.148;-1.786;2022-12-18T00:22:35;29.23;;;17.27;;
16975;SDS011;8604;48.148;-1.786;2022-12-18T00:25:04;31.93;;;18.03;;
16975;SDS011;8604;48.148;-1.786;2022-12-18T00:27:34;28.77;;;17.20;;
16975;SDS011;8604;48.148;-1.786;2022-12-18T00:30:03;31.67;;;17.37;;
16975;SDS011;8604;48.148;-1.786;2022-12-18T00:32:32;30.33;;;16.97;;
16975;SDS011;8604;48.148;-1.786;2022-12-18T00:35:01;31.03;;;17.90;;
16975;SDS011;8604;48.148;-1.786;2022-12-18T00:37:30;32.17;;;17.40;;
16975;SDS011;8604;48.148;-1.786;2022-12-18T00:39:58;28.67;;;17.40;;
16975;SDS011;8604;48.148;-1.786;2022-12-18T00:42:27;29.00;;;16.47;;
16975;SDS011;8604;48.148;-1.786;2022-12-18T00:45:15;30.37;;;17.80;;
16975;SDS011;8604;48.148;-1.786;2022-12-18T00:47:43;30.93;;;17.40;;
16975;SDS011;8604;48.148;-1.786;2022-12-18T00:50:12;29.77;;;15.97;;
16975;SDS011;8604;48.148;-1.786;2022-12-18T00:52:40;30.73;;;17.50;;
16975;SDS011;8604;48.148;-1.786;2022-12-18T00:55:09;32.73;;;17.97;;
16975;SDS011;8604;48.148;-1.786;2022-12-18T00:57:37;30.10;;;16.50;;
16975;SDS011;8604;48.148;-1.786;2022-12-18T01:00:06;30.27;;;17.03;;
16975;SDS011;8604;48.148;-1.786;2022-12-18T01:02:38;27.63;;;15.97;;
16975;SDS011;8604;48.148;-1.786;2022-12-18T01:05:08;30.27;;;16.80;;
16975;SDS011;8604;48.148;-1.786;2022-12-18T01:07:37;29.33;;;17.40;;
16975;SDS011;8604;48.148;-1.786;2022-12-18T01:10:06;28.50;;;16.40;;
16975;SDS011;8604;48.148;-1.786;2022-12-18T01:12:36;30.20;;;17.63;;
16975;SDS011;8604;48.148;-1.786;2022-12-18T01:15:05;30.17;;;18.27;;
16975;SDS011;8604;48.148;-1.786;2022-12-18T01:17:36;31.57;;;18.60;;
16975;SDS011;8604;48.148;-1.786;2022-12-18T01:20:06;31.37;;;18.07;;
16975;SDS011;8604;48.148;-1.786;2022-12-18T01:22:37;31.07;;;16.90;;
16975;SDS011;8604;48.148;-1.786;2022-12-18T01:25:06;29.70;;;17.37;;
16975;SDS011;8604;48.148;-1.786;2022-12-18T01:27:35;29.10;;;17.43;;
16975;SDS011;8604;48.148;-1.786;2022-12-18T01:30:04;31.03;;;17.83;;
16975;SDS011;8604;48.148;-1.786;2022-12-18T01:32:33;28.00;;;17.13;;
16975;SDS011;8604;48.148;-1.786;2022-12-18T01:35:01;29.57;;;17.03;;
16975;SDS011;8604;48.148;-1.786;2022-12-18T01:37:31;28.63;;;17.40;;
16975;SDS011;8604;48.148;-1.786;2022-12-18T01:40:00;32.97;;;17.23;;
16975;SDS011;8604;48.148;-1.786;2022-12-18T01:42:28;31.33;;;17.77;;
16975;SDS011;8604;48.148;-1.786;2022-12-18T01:45:01;27.30;;;16.27;;
16975;SDS011;8604;48.148;-1.786;2022-12-18T01:47:35;30.13;;;17.30;;
16975;SDS011;8604;48.148;-1.786;2022-12-18T01:50:08;32.53;;;16.67;;
16975;SDS011;8604;48.148;-1.786;2022-12-18T01:52:40;28.53;;;16.83;;
16975;SDS011;8604;48.148;-1.786;2022-12-18T01:55:10;29.20;;;16.90;;
16975;SDS011;8604;48.148;-1.786;2022-12-18T01:57:39;28.77;;;17.27;;
16975;SDS011;8604;48.148;-1.786;2022-12-18T02:00:10;29.37;;;17.03;;
16975;SDS011;8604;48.148;-1.786;2022-12-18T02:02:41;30.43;;;17.60;;
16975;SDS011;8604;48.148;-1.786;2022-12-18T02:05:12;32.67;;;18.53;;
16975;SDS011;8604;48.148;-1.786;2022-12-18T02:07:48;29.20;;;17.27;;
16975;SDS011;8604;48.148;-1.786;2022-12-18T02:10:27;30.40;;;17.63;;
16975;SDS011;8604;48.148;-1.786;2022-12-18T02:13:01;30.20;;;17.40;;
16975;SDS011;8604;48.148;-1.786;2022-12-18T02:15:36;30.40;;;17.60;;
16975;SDS011;8604;48.148;-1.786;2022-12-18T02:18:09;29.17;;;16.93;;
16975;SDS011;8604;48.148;-1.786;2022-12-18T02:20:47;27.87;;;17.10;;
16975;SDS011;8604;48.148;-1.786;2022-12-18T02:23:27;29.90;;;17.23;;
16975;SDS011;8604;48.148;-1.786;2022-12-18T02:26:12;27.33;;;16.77;;
16975;SDS011;8604;48.148;-1.786;2022-12-18T02:28:51;29.10;;;17.40;;
16975;SDS011;8604;48.148;-1.786;2022-12-18T02:31:22;29.00;;;17.00;;
16975;SDS011;8604;48.148;-1.786;2022-12-18T02:33:53;29.47;;;16.93;;
16975;SDS011;8604;48.148;-1.786;2022-12-18T02:36:26;30.30;;;17.80;;
16975;SDS011;8604;48.148;-1.786;2022-12-18T02:38:57;30.27;;;17.20;;
16975;SDS011;8604;48.148;-1.786;2022-12-18T02:41:29;27.37;;;16.77;;
16975;SDS011;8604;48.148;-1.786;2022-12-18T02:44:00;29.00;;;17.10;;
16975;SDS011;8604;48.148;-1.786;2022-12-18T02:46:32;29.93;;;18.00;;
16975;SDS011;8604;48.148;-1.786;2022-12-18T02:49:19;31.70;;;18.13;;
16975;SDS011;8604;48.148;-1.786;2022-12-18T02:52:00;29.83;;;17.20;;
16975;SDS011;8604;48.148;-1.786;2022-12-18T02:54:36;31.30;;;18.10;;
16975;SDS011;8604;48.148;-1.786;2022-12-18T02:57:27;30.17;;;17.27;;
16975;SDS011;8604;48.148;-1.786;2022-12-18T03:00:04;29.53;;;17.20;;
16975;SDS011;8604;48.148;-1.786;2022-12-18T03:02:37;30.23;;;17.47;;
16975;SDS011;8604;48.148;-1.786;2022-12-18T03:05:10;30.97;;;17.67;;
16975;SDS011;8604;48.148;-1.786;2022-12-18T03:07:43;29.97;;;16.90;;
16975;SDS011;8604;48.148;-1.786;2022-12-18T03:10:18;28.80;;;17.03;;
16975;SDS011;8604;48.148;-1.786;2022-12-18T03:12:54;29.90;;;17.07;;
16975;SDS011;8604;48.148;-1.786;2022-12-18T03:15:29;28.97;;;16.90;;
16975;SDS011;8604;48.148;-1.786;2022-12-18T03:18:08;27.37;;;16.83;;
16975;SDS011;8604;48.148;-1.786;2022-12-18T03:20:39;30.97;;;16.63;;
16975;SDS011;8604;48.148;-1.786;2022-12-18T03:23:15;26.47;;;16.00;;
16975;SDS011;8604;48.148;-1.786;2022-12-18T03:25:52;31.43;;;16.80;;
16975;SDS011;8604;48.148;-1.786;2022-12-18T03:28:31;29.07;;;16.63;;
16975;SDS011;8604;48.148;-1.786;2022-12-18T03:31:07;30.70;;;17.17;;
16975;SDS011;8604;48.148;-1.786;2022-12-18T03:33:39;29.40;;;17.47;;
16975;SDS011;8604;48.148;-1.786;2022-12-18T03:36:13;28.27;;;17.07;;
16975;SDS011;8604;48.148;-1.786;2022-12-18T03:38:42;28.50;;;16.10;;
16975;SDS011;8604;48.148;-1.786;2022-12-18T03:41:13;29.63;;;16.37;;
16975;SDS011;8604;48.148;-1.786;2022-12-18T03:44:11;29.93;;;16.87;;
16975;SDS011;8604;48.148;-1.786;2022-12-18T03:46:46;27.60;;;16.10;;
16975;SDS011;8604;48.148;-1.786;2022-12-18T03:49:23;29.37;;;16.40;;
16975;SDS011;8604;48.148;-1.786;2022-12-18T03:51:59;28.73;;;16.67;;
16975;SDS011;8604;48.148;-1.786;2022-12-18T03:54:31;27.77;;;16.17;;
16975;SDS011;8604;48.148;-1.786;2022-12-18T03:57:11;25.67;;;15.60;;
16975;SDS011;8604;48.148;-1.786;2022-12-18T03:59:45;28.70;;;16.10;;
16975;SDS011;8604;48.148;-1.786;2022-12-18T04:02:18;29.23;;;16.87;;
16975;SDS011;8604;48.148;-1.786;2022-12-18T04:04:49;31.03;;;16.83;;
16975;SDS011;8604;48.148;-1.786;2022-12-18T04:07:20;30.33;;;17.00;;
16975;SDS011;8604;48.148;-1.786;2022-12-18T04:09:50;27.97;;;16.50;;
16975;SDS011;8604;48.148;-1.786;2022-12-18T04:12:23;26.10;;;16.47;;
16975;SDS011;8604;48.148;-1.786;2022-12-18T04:14:54;29.97;;;17.10;;
16975;SDS011;8604;48.148;-1.786;2022-12-18T04:17:22;29.73;;;16.83;;
16975;SDS011;8604;48.148;-1.786;2022-12-18T04:19:51;27.53;;;17.43;;
16975;SDS011;8604;48.148;-1.786;2022-12-18T04:22:19;28.50;;;16.83;;
16975;SDS011;8604;48.148;-1.786;2022-12-18T04:24:53;24.90;;;15.27;;
16975;SDS011;8604;48.148;-1.786;2022-12-18T04:27:28;26.90;;;16.43;;
16975;SDS011;8604;48.148;-1.786;2022-12-18T04:30:00;26.97;;;15.57;;
16975;SDS011;8604;48.148;-1.786;2022-12-18T04:32:29;27.53;;;16.47;;
16975;SDS011;8604;48.148;-1.786;2022-12-18T04:34:59;29.00;;;17.37;;
16975;SDS011;8604;48.148;-1.786;2022-12-18T04:37:27;28.33;;;16.53;;
16975;SDS011;8604;48.148;-1.786;2022-12-18T04:39:55;28.77;;;16.93;;
16975;SDS011;8604;48.148;-1.786;2022-12-18T04:42:32;30.30;;;17.43;;
16975;SDS011;8604;48.148;-1.786;2022-12-18T04:45:01;26.90;;;15.50;;
16975;SDS011;8604;48.148;-1.786;2022-12-18T04:47:30;32.57;;;16.77;;
16975;SDS011;8604;48.148;-1.786;2022-12-18T04:49:59;28.17;;;16.30;;
16975;SDS011;8604;48.148;-1.786;2022-12-18T04:52:27;27.73;;;16.23;;
16975;SDS011;8604;48.148;-1.786;2022-12-18T04:54:55;30.10;;;16.77;;
16975;SDS011;8604;48.148;-1.786;2022-12-18T04:57:24;26.33;;;16.77;;
16975;SDS011;8604;48.148;-1.786;2022-12-18T04:59:52;27.20;;;16.47;;
16975;SDS011;8604;48.148;-1.786;2022-12-18T05:02:22;27.70;;;17.07;;
16975;SDS011;8604;48.148;-1.786;2022-12-18T05:04:50;28.67;;;17.37;;
16975;SDS011;8604;48.148;-1.786;2022-12-18T05:07:19;24.97;;;15.63;;
16975;SDS011;8604;48.148;-1.786;2022-12-18T05:09:47;27.93;;;16.73;;
16975;SDS011;8604;48.148;-1.786;2022-12-18T05:12:15;26.80;;;16.30;;
16975;SDS011;8604;48.148;-1.786;2022-12-18T05:14:43;28.73;;;16.47;;
16975;SDS011;8604;48.148;-1.786;2022-12-18T05:17:12;27.57;;;15.87;;
16975;SDS011;8604;48.148;-1.786;2022-12-18T05:19:41;29.97;;;17.37;;
16975;SDS011;8604;48.148;-1.786;2022-12-18T05:22:10;28.73;;;17.47;;
16975;SDS011;8604;48.148;-1.786;2022-12-18T05:24:39;28.50;;;15.83;;
16975;SDS011;8604;48.148;-1.786;2022-12-18T05:27:07;26.50;;;16.67;;
16975;SDS011;8604;48.148;-1.786;2022-12-18T05:29:35;27.77;;;16.60;;
16975;SDS011;8604;48.148;-1.786;2022-12-18T05:32:04;28.03;;;17.07;;
16975;SDS011;8604;48.148;-1.786;2022-12-18T05:34:32;26.03;;;15.60;;
16975;SDS011;8604;48.148;-1.786;2022-12-18T05:37:02;26.73;;;16.70;;
16975;SDS011;8604;48.148;-1.786;2022-12-18T05:39:30;26.00;;;16.57;;
16975;SDS011;8604;48.148;-1.786;2022-12-18T05:41:59;27.17;;;16.10;;
16975;SDS011;8604;48.148;-1.786;2022-12-18T05:44:27;27.87;;;16.03;;
16975;SDS011;8604;48.148;-1.786;2022-12-18T05:46:55;27.23;;;16.47;;
16975;SDS011;8604;48.148;-1.786;2022-12-18T05:49:24;25.73;;;16.47;;
16975;SDS011;8604;48.148;-1.786;2022-12-18T05:51:52;25.33;;;16.27;;
16975;SDS011;8604;48.148;-1.786;2022-12-18T05:54:22;29.30;;;17.17;;
16975;SDS011;8604;48.148;-1.786;2022-12-18T05:56:50;26.20;;;16.10;;
16975;SDS011;8604;48.148;-1.786;2022-12-18T05:59:19;26.47;;;17.10;;
16975;SDS011;8604;48.148;-1.786;2022-12-18T06:01:47;26.40;;;16.87;;
16975;SDS011;8604;48.148;-1.786;2022-12-18T06:04:16;29.57;;;17.23;;
16975;SDS011;8604;48.148;-1.786;2022-12-18T06:06:44;28.27;;;16.87;;
16975;SDS011;8604;48.148;-1.786;2022-12-18T06:09:12;26.70;;;16.03;;
16975;SDS011;8604;48.148;-1.786;2022-12-18T06:11:42;28.87;;;16.13;;
16975;SDS011;8604;48.148;-1.786;2022-12-18T06:14:10;27.80;;;16.77;;
16975;SDS011;8604;48.148;-1.786;2022-12-18T06:16:39;26.13;;;17.53;;
16975;SDS011;8604;48.148;-1.786;2022-12-18T06:19:07;27.40;;;16.47;;
16975;SDS011;8604;48.148;-1.786;2022-12-18T06:21:42;24.57;;;15.70;;
16975;SDS011;8604;48.148;-1.786;2022-12-18T06:24:11;26.60;;;16.67;;
16975;SDS011;8604;48.148;-1.786;2022-12-18T06:26:39;30.03;;;17.23;;
16975;SDS011;8604;48.148;-1.786;2022-12-18T06:29:09;26.37;;;16.80;;
16975;SDS011;8604;48.148;-1.786;2022-12-18T06:31:37;25.57;;;14.93;;
16975;SDS011;8604;48.148;-1.786;2022-12-18T06:34:05;28.60;;;17.73;;
16975;SDS011;8604;48.148;-1.786;2022-12-18T06:36:34;26.03;;;16.07;;
16975;SDS011;8604;48.148;-1.786;2022-12-18T06:39:02;27.87;;;17.13;;
16975;SDS011;8604;48.148;-1.786;2022-12-18T06:41:31;29.10;;;17.07;;
16975;SDS011;8604;48.148;-1.786;2022-12-18T06:43:59;27.50;;;16.97;;
16975;SDS011;8604;48.148;-1.786;2022-12-18T06:46:29;28.50;;;17.33;;
16975;SDS011;8604;48.148;-1.786;2022-12-18T06:48:58;25.27;;;16.53;;
16975;SDS011;8604;48.148;-1.786;2022-12-18T06:51:26;25.83;;;16.53;;
16975;SDS011;8604;48.148;-1.786;2022-12-18T06:53:55;26.20;;;16.53;;
16975;SDS011;8604;48.148;-1.786;2022-12-18T06:56:23;29.53;;;17.27;;
16975;SDS011;8604;48.148;-1.786;2022-12-18T06:58:51;25.80;;;16.00;;
16975;SDS011;8604;48.148;-1.786;2022-12-18T07:01:20;27.60;;;18.00;;
16975;SDS011;8604;48.148;-1.786;2022-12-18T07:03:52;24.90;;;17.07;;
16975;SDS011;8604;48.148;-1.786;2022-12-18T07:06:22;28.93;;;16.30;;
16975;SDS011;8604;48.148;-1.786;2022-12-18T07:08:52;28.83;;;16.53;;
16975;SDS011;8604;48.148;-1.786;2022-12-18T07:11:22;25.50;;;15.73;;
16975;SDS011;8604;48.148;-1.786;2022-12-18T07:13:51;29.13;;;16.93;;
16975;SDS011;8604;48.148;-1.786;2022-12-18T07:16:20;27.43;;;16.50;;
16975;SDS011;8604;48.148;-1.786;2022-12-18T07:18:53;27.77;;;17.03;;
16975;SDS011;8604;48.148;-1.786;2022-12-18T07:21:23;26.33;;;16.93;;
16975;SDS011;8604;48.148;-1.786;2022-12-18T07:23:52;27.97;;;17.00;;
16975;SDS011;8604;48.148;-1.786;2022-12-18T07:26:20;28.87;;;17.90;;
16975;SDS011;8604;48.148;-1.786;2022-12-18T07:28:49;28.33;;;17.37;;
16975;SDS011;8604;48.148;-1.786;2022-12-18T07:31:18;27.13;;;16.83;;
16975;SDS011;8604;48.148;-1.786;2022-12-18T07:33:48;28.83;;;17.07;;
16975;SDS011;8604;48.148;-1.786;2022-12-18T07:36:19;30.73;;;18.10;;
16975;SDS011;8604;48.148;-1.786;2022-12-18T07:38:48;27.77;;;16.77;;
16975;SDS011;8604;48.148;-1.786;2022-12-18T07:41:18;26.90;;;16.73;;
16975;SDS011;8604;48.148;-1.786;2022-12-18T07:43:47;25.27;;;16.93;;
16975;SDS011;8604;48.148;-1.786;2022-12-18T07:46:16;26.57;;;17.30;;
16975;SDS011;8604;48.148;-1.786;2022-12-18T07:48:44;28.97;;;18.87;;
16975;SDS011;8604;48.148;-1.786;2022-12-18T07:51:15;30.43;;;18.47;;
16975;SDS011;8604;48.148;-1.786;2022-12-18T07:53:46;33.43;;;19.53;;
16975;SDS011;8604;48.148;-1.786;2022-12-18T07:56:18;30.00;;;18.10;;
16975;SDS011;8604;48.148;-1.786;2022-12-18T07:58:56;32.57;;;19.30;;
16975;SDS011;8604;48.148;-1.786;2022-12-18T08:01:25;29.10;;;18.30;;
16975;SDS011;8604;48.148;-1.786;2022-12-18T08:03:54;29.13;;;18.70;;
16975;SDS011;8604;48.148;-1.786;2022-12-18T08:06:22;29.63;;;19.20;;
16975;SDS011;8604;48.148;-1.786;2022-12-18T08:08:53;30.03;;;18.83;;
16975;SDS011;8604;48.148;-1.786;2022-12-18T08:11:23;31.10;;;18.73;;
16975;SDS011;8604;48.148;-1.786;2022-12-18T08:13:53;30.40;;;18.23;;
16975;SDS011;8604;48.148;-1.786;2022-12-18T08:16:22;30.43;;;17.90;;
16975;SDS011;8604;48.148;-1.786;2022-12-18T08:18:51;31.13;;;18.93;;
16975;SDS011;8604;48.148;-1.786;2022-12-18T08:21:20;32.90;;;18.87;;
16975;SDS011;8604;48.148;-1.786;2022-12-18T08:23:50;31.50;;;19.80;;
16975;SDS011;8604;48.148;-1.786;2022-12-18T08:26:21;32.70;;;19.47;;
16975;SDS011;8604;48.148;-1.786;2022-12-18T08:28:51;28.40;;;18.67;;
16975;SDS011;8604;48.148;-1.786;2022-12-18T08:31:21;31.47;;;19.60;;
16975;SDS011;8604;48.148;-1.786;2022-12-18T08:33:50;31.47;;;19.13;;
16975;SDS011;8604;48.148;-1.786;2022-12-18T08:36:20;30.47;;;19.47;;
16975;SDS011;8604;48.148;-1.786;2022-12-18T08:38:50;29.63;;;19.10;;
16975;SDS011;8604;48.148;-1.786;2022-12-18T08:41:20;32.20;;;20.80;;
16975;SDS011;8604;48.148;-1.786;2022-12-18T08:43:48;30.10;;;19.13;;
16975;SDS011;8604;48.148;-1.786;2022-12-18T08:46:35;31.47;;;18.50;;
16975;SDS011;8604;48.148;-1.786;2022-12-18T08:49:04;30.37;;;18.87;;
16975;SDS011;8604;48.148;-1.786;2022-12-18T08:51:33;27.70;;;17.90;;
16975;SDS011;8604;48.148;-1.786;2022-12-18T08:54:02;29.63;;;18.13;;
16975;SDS011;8604;48.148;-1.786;2022-12-18T08:56:33;30.60;;;19.00;;
16975;SDS011;8604;48.148;-1.786;2022-12-18T08:59:02;30.70;;;18.90;;
16975;SDS011;8604;48.148;-1.786;2022-12-18T09:01:30;31.33;;;19.33;;
16975;SDS011;8604;48.148;-1.786;2022-12-18T09:04:01;30.53;;;18.27;;
16975;SDS011;8604;48.148;-1.786;2022-12-18T09:06:30;29.53;;;18.30;;
16975;SDS011;8604;48.148;-1.786;2022-12-18T09:08:58;30.00;;;18.83;;
16975;SDS011;8604;48.148;-1.786;2022-12-18T09:11:28;31.23;;;18.53;;
16975;SDS011;8604;48.148;-1.786;2022-12-18T09:13:59;30.57;;;19.00;;
16975;SDS011;8604;48.148;-1.786;2022-12-18T09:16:28;30.27;;;19.33;;
16975;SDS011;8604;48.148;-1.786;2022-12-18T09:18:58;31.83;;;20.30;;
16975;SDS011;8604;48.148;-1.786;2022-12-18T09:21:28;33.47;;;18.83;;
16975;SDS011;8604;48.148;-1.786;2022-12-18T09:24:02;31.90;;;19.17;;
16975;SDS011;8604;48.148;-1.786;2022-12-18T09:26:34;35.43;;;20.97;;
16975;SDS011;8604;48.148;-1.786;2022-12-18T09:29:04;34.23;;;20.37;;
16975;SDS011;8604;48.148;-1.786;2022-12-18T09:31:34;31.13;;;19.03;;
16975;SDS011;8604;48.148;-1.786;2022-12-18T09:34:03;34.63;;;19.93;;
16975;SDS011;8604;48.148;-1.786;2022-12-18T09:36:31;34.57;;;20.47;;
16975;SDS011;8604;48.148;-1.786;2022-12-18T09:38:59;37.20;;;20.90;;
16975;SDS011;8604;48.148;-1.786;2022-12-18T09:41:44;33.00;;;20.03;;
16975;SDS011;8604;48.148;-1.786;2022-12-18T09:44:20;33.93;;;20.60;;
16975;SDS011;8604;48.148;-1.786;2022-12-18T09:46:55;37.67;;;20.97;;
16975;SDS011;8604;48.148;-1.786;2022-12-18T09:49:40;39.13;;;22.07;;
16975;SDS011;8604;48.148;-1.786;2022-12-18T09:52:15;34.67;;;20.07;;
16975;SDS011;8604;48.148;-1.786;2022-12-18T09:54:48;35.13;;;21.63;;
16975;SDS011;8604;48.148;-1.786;2022-12-18T09:57:20;35.37;;;20.23;;
16975;SDS011;8604;48.148;-1.786;2022-12-18T09:59:51;39.80;;;21.40;;
16975;SDS011;8604;48.148;-1.786;2022-12-18T10:02:23;42.30;;;22.70;;
16975;SDS011;8604;48.148;-1.786;2022-12-18T10:05:01;46.80;;;22.30;;
16975;SDS011;8604;48.148;-1.786;2022-12-18T10:07:39;50.10;;;22.67;;
16975;SDS011;8604;48.148;-1.786;2022-12-18T10:10:16;38.17;;;21.57;;
16975;SDS011;8604;48.148;-1.786;2022-12-18T10:12:55;40.67;;;22.67;;
16975;SDS011;8604;48.148;-1.786;2022-12-18T10:15:33;46.77;;;23.63;;
16975;SDS011;8604;48.148;-1.786;2022-12-18T10:18:13;40.40;;;21.07;;
16975;SDS011;8604;48.148;-1.786;2022-12-18T10:20:51;36.93;;;20.57;;
16975;SDS011;8604;48.148;-1.786;2022-12-18T10:23:24;37.37;;;22.20;;
16975;SDS011;8604;48.148;-1.786;2022-12-18T10:26:00;46.63;;;22.00;;
16975;SDS011;8604;48.148;-1.786;2022-12-18T10:28:31;41.63;;;21.53;;
16975;SDS011;8604;48.148;-1.786;2022-12-18T10:31:07;43.90;;;23.37;;
16975;SDS011;8604;48.148;-1.786;2022-12-18T10:33:42;45.67;;;23.20;;
16975;SDS011;8604;48.148;-1.786;2022-12-18T10:36:11;43.67;;;22.03;;
16975;SDS011;8604;48.148;-1.786;2022-12-18T10:38:39;44.20;;;21.50;;
16975;SDS011;8604;48.148;-1.786;2022-12-18T10:41:22;47.37;;;23.87;;
16975;SDS011;8604;48.148;-1.786;2022-12-18T10:44:11;44.37;;;21.80;;
16975;SDS011;8604;48.148;-1.786;2022-12-18T10:46:45;39.00;;;21.53;;
16975;SDS011;8604;48.148;-1.786;2022-12-18T10:49:24;43.40;;;22.40;;
16975;SDS011;8604;48.148;-1.786;2022-12-18T10:52:04;43.90;;;22.37;;
16975;SDS011;8604;48.148;-1.786;2022-12-18T10:54:33;45.43;;;23.87;;
16975;SDS011;8604;48.148;-1.786;2022-12-18T10:57:17;40.57;;;21.63;;
16975;SDS011;8604;48.148;-1.786;2022-12-18T11:00:18;45.23;;;21.90;;
16975;SDS011;8604;48.148;-1.786;2022-12-18T11:02:51;45.37;;;23.67;;
16975;SDS011;8604;48.148;-1.786;2022-12-18T11:05:27;41.87;;;22.93;;
16975;SDS011;8604;48.148;-1.786;2022-12-18T11:07:57;45.90;;;23.73;;
16975;SDS011;8604;48.148;-1.786;2022-12-18T11:10:28;38.80;;;22.27;;
16975;SDS011;8604;48.148;-1.786;2022-12-18T11:13:10;37.90;;;22.10;;
16975;SDS011;8604;48.148;-1.786;2022-12-18T11:15:40;43.43;;;23.30;;
16975;SDS011;8604;48.148;-1.786;2022-12-18T11:18:17;36.63;;;20.33;;
16975;SDS011;8604;48.148;-1.786;2022-12-18T11:20:50;43.30;;;22.87;;
16975;SDS011;8604;48.148;-1.786;2022-12-18T11:23:24;50.40;;;27.87;;
16975;SDS011;8604;48.148;-1.786;2022-12-18T11:25:55;39.47;;;23.07;;
16975;SDS011;8604;48.148;-1.786;2022-12-18T11:28:26;53.83;;;34.97;;
16975;SDS011;8604;48.148;-1.786;2022-12-18T11:31:12;56.20;;;31.30;;
16975;SDS011;8604;48.148;-1.786;2022-12-18T11:34:00;45.23;;;24.27;;
16975;SDS011;8604;48.148;-1.786;2022-12-18T11:36:52;34.20;;;20.73;;
16975;SDS011;8604;48.148;-1.786;2022-12-18T11:39:24;35.00;;;20.97;;
16975;SDS011;8604;48.148;-1.786;2022-12-18T11:41:59;42.60;;;23.73;;
16975;SDS011;8604;48.148;-1.786;2022-12-18T11:44:41;55.80;;;27.63;;
16975;SDS011;8604;48.148;-1.786;2022-12-18T11:47:16;47.17;;;26.20;;
16975;SDS011;8604;48.148;-1.786;2022-12-18T11:49:56;38.90;;;22.87;;
16975;SDS011;8604;48.148;-1.786;2022-12-18T11:52:30;36.33;;;22.20;;
16975;SDS011;8604;48.148;-1.786;2022-12-18T11:55:07;42.60;;;23.47;;
16975;SDS011;8604;48.148;-1.786;2022-12-18T11:57:40;40.67;;;23.50;;
16975;SDS011;8604;48.148;-1.786;2022-12-18T12:00:18;50.60;;;31.77;;
16975;SDS011;8604;48.148;-1.786;2022-12-18T12:05:54;35.07;;;21.27;;
16975;SDS011;8604;48.148;-1.786;2022-12-18T12:08:33;33.83;;;22.10;;
16975;SDS011;8604;48.148;-1.786;2022-12-18T12:11:13;57.83;;;35.87;;
16975;SDS011;8604;48.148;-1.786;2022-12-18T12:13:53;40.83;;;23.20;;
16975;SDS011;8604;48.148;-1.786;2022-12-18T12:16:34;42.07;;;26.10;;
16975;SDS011;8604;48.148;-1.786;2022-12-18T12:19:15;37.93;;;22.67;;
16975;SDS011;8604;48.148;-1.786;2022-12-18T12:21:54;37.83;;;23.37;;
16975;SDS011;8604;48.148;-1.786;2022-12-18T12:24:34;40.50;;;22.83;;
16975;SDS011;8604;48.148;-1.786;2022-12-18T12:27:11;37.80;;;23.03;;
16975;SDS011;8604;48.148;-1.786;2022-12-18T12:29:47;34.30;;;22.80;;
16975;SDS011;8604;48.148;-1.786;2022-12-18T12:32:26;40.73;;;25.43;;
16975;SDS011;8604;48.148;-1.786;2022-12-18T12:35:04;36.60;;;23.73;;
16975;SDS011;8604;48.148;-1.786;2022-12-18T12:37:46;38.40;;;26.13;;
16975;SDS011;8604;48.148;-1.786;2022-12-18T12:40:27;39.53;;;23.67;;
16975;SDS011;8604;48.148;-1.786;2022-12-18T12:43:27;38.77;;;24.87;;
16975;SDS011;8604;48.148;-1.786;2022-12-18T12:46:01;38.50;;;23.37;;
16975;SDS011;8604;48.148;-1.786;2022-12-18T12:48:35;39.07;;;24.17;;
16975;SDS011;8604;48.148;-1.786;2022-12-18T12:51:16;42.83;;;24.80;;
16975;SDS011;8604;48.148;-1.786;2022-12-18T12:53:49;41.17;;;25.20;;
16975;SDS011;8604;48.148;-1.786;2022-12-18T12:56:19;36.70;;;24.80;;
16975;SDS011;8604;48.148;-1.786;2022-12-18T12:58:52;39.07;;;23.57;;
16975;SDS011;8604;48.148;-1.786;2022-12-18T13:01:28;42.37;;;25.73;;
16975;SDS011;8604;48.148;-1.786;2022-12-18T13:04:08;35.10;;;23.37;;
16975;SDS011;8604;48.148;-1.786;2022-12-18T13:06:45;42.27;;;25.10;;
16975;SDS011;8604;48.148;-1.786;2022-12-18T13:09:19;37.27;;;24.97;;
16975;SDS011;8604;48.148;-1.786;2022-12-18T13:11:48;42.77;;;26.17;;
16975;SDS011;8604;48.148;-1.786;2022-12-18T13:14:34;43.80;;;26.20;;
16975;SDS011;8604;48.148;-1.786;2022-12-18T13:17:14;51.57;;;28.33;;
16975;SDS011;8604;48.148;-1.786;2022-12-18T13:20:06;38.67;;;23.60;;
16975;SDS011;8604;48.148;-1.786;2022-12-18T13:22:40;40.47;;;23.47;;
16975;SDS011;8604;48.148;-1.786;2022-12-18T13:25:29;39.43;;;25.23;;
16975;SDS011;8604;48.148;-1.786;2022-12-18T13:28:04;53.60;;;32.03;;
16975;SDS011;8604;48.148;-1.786;2022-12-18T13:30:42;37.37;;;23.67;;
16975;SDS011;8604;48.148;-1.786;2022-12-18T13:36:30;36.33;;;22.53;;
16975;SDS011;8604;48.148;-1.786;2022-12-18T13:39:15;43.57;;;25.70;;
16975;SDS011;8604;48.148;-1.786;2022-12-18T13:45:35;41.57;;;25.13;;
16975;SDS011;8604;48.148;-1.786;2022-12-18T13:48:14;37.47;;;23.07;;
16975;SDS011;8604;48.148;-1.786;2022-12-18T13:50:49;47.33;;;27.43;;
16975;SDS011;8604;48.148;-1.786;2022-12-18T13:53:24;41.57;;;24.50;;
16975;SDS011;8604;48.148;-1.786;2022-12-18T13:55:57;42.97;;;25.23;;
16975;SDS011;8604;48.148;-1.786;2022-12-18T13:58:27;45.53;;;28.83;;
16975;SDS011;8604;48.148;-1.786;2022-12-18T14:00:56;37.67;;;25.07;;
16975;SDS011;8604;48.148;-1.786;2022-12-18T14:03:26;39.13;;;23.47;;
16975;SDS011;8604;48.148;-1.786;2022-12-18T14:05:59;44.80;;;24.37;;
16975;SDS011;8604;48.148;-1.786;2022-12-18T14:08:36;37.03;;;24.30;;
16975;SDS011;8604;48.148;-1.786;2022-12-18T14:11:07;38.00;;;24.70;;
16975;SDS011;8604;48.148;-1.786;2022-12-18T14:13:49;36.17;;;22.97;;
16975;SDS011;8604;48.148;-1.786;2022-12-18T14:16:18;39.67;;;24.10;;
16975;SDS011;8604;48.148;-1.786;2022-12-18T14:18:48;39.10;;;24.60;;
16975;SDS011;8604;48.148;-1.786;2022-12-18T14:21:23;59.80;;;39.37;;
16975;SDS011;8604;48.148;-1.786;2022-12-18T14:24:03;47.87;;;32.30;;
16975;SDS011;8604;48.148;-1.786;2022-12-18T14:26:43;44.47;;;30.00;;
16975;SDS011;8604;48.148;-1.786;2022-12-18T14:29:25;41.40;;;29.47;;
16975;SDS011;8604;48.148;-1.786;2022-12-18T14:32:05;47.07;;;34.87;;
16975;SDS011;8604;48.148;-1.786;2022-12-18T14:34:43;43.60;;;32.23;;
16975;SDS011;8604;48.148;-1.786;2022-12-18T14:37:13;39.47;;;26.07;;
16975;SDS011;8604;48.148;-1.786;2022-12-18T14:39:53;43.57;;;28.97;;
16975;SDS011;8604;48.148;-1.786;2022-12-18T14:42:25;39.57;;;25.03;;
16975;SDS011;8604;48.148;-1.786;2022-12-18T14:48:14;50.57;;;34.27;;
16975;SDS011;8604;48.148;-1.786;2022-12-18T14:50:59;57.33;;;41.67;;
16975;SDS011;8604;48.148;-1.786;2022-12-18T14:53:34;38.10;;;26.20;;
16975;SDS011;8604;48.148;-1.786;2022-12-18T14:56:12;38.97;;;29.37;;
16975;SDS011;8604;48.148;-1.786;2022-12-18T14:58:45;43.47;;;29.40;;
16975;SDS011;8604;48.148;-1.786;2022-12-18T15:01:18;41.67;;;27.53;;
16975;SDS011;8604;48.148;-1.786;2022-12-18T15:03:49;39.27;;;25.63;;
16975;SDS011;8604;48.148;-1.786;2022-12-18T15:06:24;45.17;;;30.10;;